Time;durP1;ratioP1;P1;durP2;ratioP2;P2;SDS_P1;SDS_P2;PMS_P1;PMS_P2;Temp;Humidity;BMP_temperature;BMP_pressure;BME280_temperature;BME280_humidity;BME280_pressure;Samples;Min_cycle;Max_cycle;Signal;HPM_P1;HPM_P2
2021/04/28 00:01:58;;;;;;;7.93;7.00;;;8.40;51.90;;;;;;4957881;29;20418;-87
2021/04/28 00:04:24;;;;;;;7.27;6.57;;;8.50;52.10;;;;;;4957924;29;20167;-87
2021/04/28 00:06:51;;;;;;;7.83;6.70;;;9.70;53.40;;;;;;4957774;29;20461;-87
2021/04/28 00:09:17;;;;;;;7.07;6.47;;;8.30;52.20;;;;;;4940801;29;20269;-87
2021/04/28 00:11:43;;;;;;;7.00;6.43;;;8.40;52.40;;;;;;4957825;29;20485;-86
2021/04/28 00:14:10;;;;;;;7.40;6.90;;;8.30;52.50;;;;;;4957800;29;20306;-87
2021/04/28 00:16:36;;;;;;;6.77;6.37;;;8.30;52.70;;;;;;4940395;29;20418;-87
2021/04/28 00:19:03;;;;;;;7.57;6.87;;;8.20;52.70;;;;;;4957591;29;20454;-87
2021/04/28 00:21:29;;;;;;;8.00;7.30;;;8.20;52.80;;;;;;4957445;29;20421;-88
2021/04/28 00:23:55;;;;;;;7.87;7.27;;;8.20;52.90;;;;;;4957477;29;20410;-88
2021/04/28 00:26:21;;;;;;;9.03;7.50;;;8.30;52.70;;;;;;4957553;29;20973;-88
2021/04/28 00:28:47;;;;;;;8.17;7.07;;;8.30;52.70;;;;;;4939853;29;20516;-88
2021/04/28 00:31:13;;;;;;;8.33;7.70;;;8.30;52.60;;;;;;4940165;29;20484;-88
2021/04/28 00:33:39;;;;;;;7.40;6.90;;;8.20;52.50;;;;;;4957276;29;20174;-88
2021/04/28 00:36:05;;;;;;;7.53;7.13;;;8.20;52.90;;;;;;4956242;29;20429;-86
2021/04/28 00:38:31;;;;;;;8.27;7.50;;;8.20;52.70;;;;;;4957305;29;20906;-87
2021/04/28 00:40:57;;;;;;;7.70;7.10;;;8.20;52.70;;;;;;4957126;29;20418;-88
2021/04/28 00:43:23;;;;;;;6.93;6.47;;;7.50;52.90;;;;;;4957711;29;20190;-87
2021/04/28 00:45:49;;;;;;;7.50;7.00;;;8.00;53.90;;;;;;4957431;29;20775;-87
2021/04/28 00:48:15;;;;;;;9.00;8.10;;;8.10;54.00;;;;;;4940288;29;20198;-86
2021/04/28 00:50:47;;;;;;;9.27;7.37;;;8.00;53.90;;;;;;4957952;29;20462;-87
2021/04/28 00:53:15;;;;;;;7.13;6.73;;;8.00;53.80;;;;;;4939767;29;20621;-87
2021/04/28 00:55:42;;;;;;;7.30;6.70;;;8.00;53.90;;;;;;4939981;29;20425;-87
2021/04/28 00:58:08;;;;;;;6.77;6.23;;;7.90;54.20;;;;;;4955909;28;20448;-87
2021/04/28 01:00:35;;;;;;;7.13;6.53;;;7.90;54.40;;;;;;4957042;29;20815;-86
2021/04/28 01:03:01;;;;;;;7.50;6.90;;;7.90;53.50;;;;;;4939483;29;20418;-87
2021/04/28 01:05:27;;;;;;;9.30;7.10;;;8.00;53.10;;;;;;4939512;29;20485;-87
2021/04/28 01:07:52;;;;;;;7.53;7.07;;;7.40;52.30;;;;;;4955731;29;20317;-87
2021/04/28 01:10:24;;;;;;;7.07;6.50;;;8.20;52.60;;;;;;4939413;29;20206;-88
2021/04/28 01:12:51;;;;;;;7.17;6.57;;;7.90;52.30;;;;;;4939478;29;20423;-88
2021/04/28 01:15:20;;;;;;;7.03;6.03;;;8.20;52.30;;;;;;4956579;29;20942;-88
2021/04/28 01:17:46;;;;;;;7.20;6.63;;;8.30;52.10;;;;;;4956499;29;20906;-88
2021/04/28 01:20:14;;;;;;;7.23;6.90;;;8.20;51.20;;;;;;4956693;29;20434;-88
2021/04/28 01:22:41;;;;;;;6.88;6.38;;;8.10;51.40;;;;;;4939107;29;20411;-88
2021/04/28 01:25:10;;;;;;;8.93;6.70;;;7.90;51.40;;;;;;4939210;29;20179;-88
2021/04/28 01:27:38;;;;;;;7.00;6.60;;;8.00;50.70;;;;;;4956124;29;20493;-88
2021/04/28 01:30:07;;;;;;;7.60;6.87;;;8.00;50.40;;;;;;4938900;29;20824;-88
2021/04/28 01:32:34;;;;;;;9.30;7.90;;;8.00;49.90;;;;;;4956409;29;20498;-88
2021/04/28 01:35:00;;;;;;;9.77;7.20;;;8.00;49.60;;;;;;4938959;29;20475;-88
2021/04/28 01:37:27;;;;;;;7.67;7.07;;;7.90;50.10;;;;;;4938853;29;20481;-87
2021/04/28 01:39:54;;;;;;;8.00;7.27;;;7.90;51.30;;;;;;4955505;28;20423;-88
2021/04/28 01:42:20;;;;;;;8.30;7.27;;;7.80;51.60;;;;;;4955992;29;20397;-88
2021/04/28 01:44:47;;;;;;;7.67;6.97;;;7.80;51.90;;;;;;4955889;29;20780;-88
2021/04/28 01:47:14;;;;;;;8.57;7.97;;;7.60;52.00;;;;;;4955910;29;20415;-87
2021/04/28 01:49:42;;;;;;;8.60;7.80;;;7.40;52.20;;;;;;4955886;29;20392;-88
2021/04/28 01:52:09;;;;;;;7.67;6.87;;;7.20;52.40;;;;;;4955902;29;20451;-87
2021/04/28 01:54:35;;;;;;;22.63;10.53;;;6.70;52.50;;;;;;4938595;29;20909;-87
2021/04/28 01:57:01;;;;;;;8.47;7.77;;;6.90;53.30;;;;;;4955728;29;20758;-87
2021/04/28 01:59:27;;;;;;;9.03;8.13;;;6.90;53.60;;;;;;4938487;29;20507;-87
2021/04/28 02:01:55;;;;;;;10.13;8.40;;;6.80;53.90;;;;;;4938560;29;20545;-88
2021/04/28 02:04:21;;;;;;;10.00;7.90;;;6.70;54.30;;;;;;4938464;29;20759;-88
2021/04/28 02:06:51;;;;;;;8.53;7.90;;;6.70;54.60;;;;;;4955649;29;20393;-88
2021/04/28 02:09:17;;;;;;;8.40;7.67;;;6.70;54.40;;;;;;4955601;29;20433;-87
2021/04/28 02:11:43;;;;;;;10.00;8.90;;;6.80;54.50;;;;;;4956076;29;21051;-87
2021/04/28 02:14:14;;;;;;;8.53;7.40;;;6.70;54.70;;;;;;4956547;29;20241;-88
2021/04/28 02:16:42;;;;;;;9.37;8.47;;;6.80;54.80;;;;;;4959939;29;20171;-88
2021/04/28 02:19:09;;;;;;;17.25;8.85;;;6.90;54.90;;;;;;4949049;29;20921;-88
2021/04/28 02:21:48;;;;;;;8.88;8.23;;;7.00;54.90;;;;;;4971670;29;20162;-88
2021/04/28 02:24:14;;;;;;;8.23;7.53;;;7.00;54.80;;;;;;4976028;29;20163;-87
2021/04/28 02:26:41;;;;;;;9.07;7.90;;;7.00;54.50;;;;;;4958629;29;20936;-87
2021/04/28 02:29:06;;;;;;;8.80;7.90;;;7.10;54.30;;;;;;4955616;29;20516;-85
2021/04/28 02:31:33;;;;;;;9.17;8.13;;;7.00;54.30;;;;;;4954017;29;20524;-88
2021/04/28 02:34:04;;;;;;;9.15;8.23;;;6.90;54.30;;;;;;4955322;29;20766;-87
2021/04/28 02:36:36;;;;;;;10.63;8.53;;;6.80;54.60;;;;;;4955191;29;20174;-87
2021/04/28 02:39:08;;;;;;;8.97;8.27;;;6.70;54.70;;;;;;4955136;29;20442;-86
2021/04/28 02:41:37;;;;;;;8.53;7.83;;;6.40;54.50;;;;;;4955310;29;20381;-87
2021/04/28 02:44:03;;;;;;;9.98;8.98;;;6.60;54.30;;;;;;4937842;29;20412;-87
2021/04/28 02:46:31;;;;;;;11.87;8.37;;;6.50;53.80;;;;;;4955001;29;20596;-87
2021/04/28 02:48:57;;;;;;;9.63;8.80;;;6.50;53.20;;;;;;4955175;29;20502;-88
2021/04/28 02:51:26;;;;;;;9.60;8.90;;;6.50;53.30;;;;;;4954023;28;20875;-87
2021/04/28 02:53:52;;;;;;;9.30;8.53;;;6.60;54.20;;;;;;4954879;29;20377;-87
2021/04/28 02:56:17;;;;;;;9.80;8.80;;;6.50;54.90;;;;;;4955188;29;20404;-87
2021/04/28 02:58:43;;;;;;;9.20;8.60;;;6.40;55.00;;;;;;4954966;29;20390;-87
2021/04/28 03:01:09;;;;;;;9.23;8.40;;;6.40;55.60;;;;;;4955074;29;20175;-87
2021/04/28 03:03:39;;;;;;;9.93;9.07;;;6.30;55.60;;;;;;4954875;29;20814;-87
2021/04/28 03:06:06;;;;;;;9.13;8.50;;;6.30;55.90;;;;;;4954729;29;20749;-87
2021/04/28 03:08:32;;;;;;;10.40;9.40;;;6.20;56.00;;;;;;4937617;29;20167;-87
2021/04/28 03:10:58;;;;;;;13.00;8.80;;;6.20;56.00;;;;;;4937421;29;20548;-87
2021/04/28 03:13:24;;;;;;;11.33;9.03;;;6.10;56.20;;;;;;4937595;29;20170;-86
2021/04/28 03:15:49;;;;;;;9.70;8.90;;;6.00;56.50;;;;;;4953576;29;20862;-87
2021/04/28 03:18:16;;;;;;;10.73;9.77;;;6.00;56.80;;;;;;4937308;29;20171;-86
2021/04/28 03:20:46;;;;;;;12.48;9.00;;;6.00;56.90;;;;;;4937513;29;20269;-86
2021/04/28 03:23:12;;;;;;;10.05;9.00;;;5.90;56.80;;;;;;4954803;29;20213;-86
2021/04/28 03:25:40;;;;;;;9.43;8.50;;;5.90;56.70;;;;;;4955018;29;20214;-87
2021/04/28 03:28:06;;;;;;;22.05;11.88;;;5.70;56.50;;;;;;4954650;29;20443;-86
2021/04/28 03:30:32;;;;;;;11.75;10.60;;;5.80;57.00;;;;;;4954433;29;20318;-87
2021/04/28 03:32:57;;;;;;;10.10;9.30;;;5.80;57.40;;;;;;4937428;29;20242;-87
2021/04/28 03:35:23;;;;;;;9.90;9.10;;;5.60;57.70;;;;;;4937415;29;20171;-87
2021/04/28 03:37:49;;;;;;;10.60;9.40;;;5.60;57.40;;;;;;4954514;29;20201;-87
2021/04/28 03:40:14;;;;;;;12.10;10.63;;;5.60;57.30;;;;;;4954740;29;20173;-87
2021/04/28 03:42:40;;;;;;;9.73;9.00;;;5.50;57.50;;;;;;4937789;29;20249;-86
2021/04/28 03:45:06;;;;;;;11.93;10.83;;;5.50;57.70;;;;;;4954685;29;20170;-87
2021/04/28 03:47:32;;;;;;;17.00;11.13;;;5.40;57.70;;;;;;4955144;29;20167;-87
2021/04/28 03:49:58;;;;;;;12.90;10.65;;;5.40;57.90;;;;;;4954612;29;20465;-87
2021/04/28 03:52:25;;;;;;;12.13;9.97;;;5.00;57.70;;;;;;4953581;28;20171;-86
2021/04/28 03:54:50;;;;;;;12.65;10.10;;;5.30;57.40;;;;;;4938327;29;20409;-86
2021/04/28 03:57:16;;;;;;;11.40;10.40;;;5.00;57.40;;;;;;4940038;29;20176;-86
2021/04/28 03:59:42;;;;;;;15.40;9.70;;;5.30;57.70;;;;;;4956069;29;20271;-86
2021/04/28 04:02:07;;;;;;;11.33;10.23;;;5.30;57.50;;;;;;4957882;28;20190;-86
2021/04/28 04:04:34;;;;;;;10.60;9.60;;;5.30;58.10;;;;;;4959414;29;20179;-86
2021/04/28 04:07:00;;;;;;;11.67;10.50;;;5.30;58.20;;;;;;4958107;29;20166;-87
2021/04/28 04:09:25;;;;;;;14.93;10.23;;;5.30;58.30;;;;;;4958109;29;20422;-86
2021/04/28 04:11:52;;;;;;;16.63;11.30;;;5.20;58.50;;;;;;4940535;29;20175;-87
2021/04/28 04:14:18;;;;;;;11.80;10.48;;;5.30;58.60;;;;;;4957860;29;20170;-87
2021/04/28 04:16:43;;;;;;;10.98;9.98;;;5.30;58.80;;;;;;4940360;29;20263;-87
2021/04/28 04:19:09;;;;;;;11.90;10.77;;;5.30;59.00;;;;;;4958126;29;20186;-87
2021/04/28 04:21:35;;;;;;;12.67;9.67;;;5.30;59.00;;;;;;4957751;29;20173;-86
2021/04/28 04:24:00;;;;;;;15.70;11.20;;;5.30;58.80;;;;;;4957758;29;20181;-86
2021/04/28 04:26:26;;;;;;;11.80;10.47;;;5.30;58.80;;;;;;4940653;29;20175;-86
2021/04/28 04:28:51;;;;;;;14.13;11.10;;;5.20;58.80;;;;;;4956485;29;20246;-87
2021/04/28 04:31:17;;;;;;;11.23;9.83;;;5.20;58.70;;;;;;4957248;29;20226;-87
2021/04/28 04:33:43;;;;;;;10.83;9.73;;;5.20;58.70;;;;;;4958365;29;20170;-86
2021/04/28 04:36:08;;;;;;;16.57;11.17;;;5.20;58.70;;;;;;4939901;29;20540;-84
2021/04/28 04:38:34;;;;;;;11.73;10.13;;;5.20;58.50;;;;;;4956984;29;20170;-86
2021/04/28 04:40:59;;;;;;;10.60;9.07;;;5.20;58.10;;;;;;4957521;29;20209;-87
2021/04/28 04:43:25;;;;;;;11.20;10.17;;;5.10;58.10;;;;;;4958309;29;20198;-87
2021/04/28 04:45:51;;;;;;;11.20;10.23;;;5.20;58.30;;;;;;4957497;29;20706;-86
2021/04/28 04:48:16;;;;;;;13.50;11.00;;;5.10;58.30;;;;;;4956161;28;20175;-87
2021/04/28 04:50:42;;;;;;;17.17;10.60;;;5.00;58.50;;;;;;4957729;29;20206;-86
2021/04/28 04:53:09;;;;;;;12.83;10.43;;;5.10;58.50;;;;;;4940316;29;20262;-85
2021/04/28 04:55:35;;;;;;;12.10;10.80;;;5.10;58.20;;;;;;4957210;29;20171;-87
2021/04/28 04:58:00;;;;;;;12.75;11.35;;;5.10;58.30;;;;;;4940795;29;20178;-87
2021/04/28 05:00:26;;;;;;;13.33;11.33;;;5.10;58.30;;;;;;4596257;29;9999600;-86
2021/04/28 05:02:52;;;;;;;10.73;9.68;;;6.10;58.90;;;;;;4954368;29;20178;-86
2021/04/28 05:05:18;;;;;;;11.33;10.20;;;5.00;58.10;;;;;;4938013;29;20175;-85
2021/04/28 05:07:45;;;;;;;11.63;10.60;;;5.00;58.00;;;;;;4954670;29;20613;-85
2021/04/28 05:10:13;;;;;;;13.18;10.80;;;5.10;58.00;;;;;;4954435;29;20210;-86
2021/04/28 05:12:39;;;;;;;11.20;9.60;;;5.10;57.90;;;;;;4937021;29;20182;-83
2021/04/28 05:15:06;;;;;;;10.95;9.93;;;5.20;57.50;;;;;;4953803;28;20369;-85
2021/04/28 05:17:32;;;;;;;10.93;9.88;;;5.40;57.30;;;;;;4954573;29;20184;-85
2021/04/28 05:19:58;;;;;;;10.93;10.10;;;5.60;56.80;;;;;;4954277;29;20178;-85
2021/04/28 05:22:58;;;;;;;10.57;9.40;;;5.80;56.50;;;;;;4953148;28;20433;-87
2021/04/28 05:25:25;;;;;;;23.23;11.25;;;6.00;56.00;;;;;;5130716;23;20508;-86
2021/04/28 05:27:50;;;;;;;11.10;9.57;;;7.30;58.60;;;;;;5585307;22;20219;-88
2021/04/28 05:35:27;;;;;;;16.80;10.37;;;7.70;52.00;;;;;;5028692;23;20854;-86
2021/04/28 05:37:52;;;;;;;11.27;10.23;;;7.90;51.40;;;;;;4955392;28;20463;-85
2021/04/28 05:40:19;;;;;;;38.60;14.57;;;8.20;50.50;;;;;;4972678;28;20221;-84
2021/04/28 05:42:45;;;;;;;10.90;8.40;;;8.60;50.30;;;;;;4971783;28;20178;-84
2021/04/28 05:45:14;;;;;;;11.20;9.73;;;9.00;49.50;;;;;;4972701;28;20505;-85
2021/04/28 05:47:40;;;;;;;11.20;10.10;;;9.40;49.70;;;;;;4973005;28;20418;-85
2021/04/28 05:50:09;;;;;;;11.47;10.37;;;9.60;49.10;;;;;;4973087;28;20465;-84
2021/04/28 05:52:34;;;;;;;31.23;13.37;;;10.10;47.60;;;;;;4955789;28;20425;-88
2021/04/28 05:55:00;;;;;;;11.27;9.50;;;10.60;47.20;;;;;;4955477;28;20479;-85
2021/04/28 05:57:25;;;;;;;11.10;10.10;;;10.90;46.10;;;;;;4972981;28;20170;-86
2021/04/28 05:59:51;;;;;;;12.73;10.07;;;11.30;45.70;;;;;;4954849;28;20182;-87
2021/04/28 06:02:16;;;;;;;9.73;8.93;;;11.50;45.40;;;;;;4973061;28;20174;-84
2021/04/28 06:04:42;;;;;;;10.93;10.00;;;11.80;45.10;;;;;;4972349;28;20656;-87
2021/04/28 06:07:07;;;;;;;11.60;10.40;;;12.00;44.50;;;;;;4982254;28;20216;-87
2021/04/28 06:10:10;;;;;;;12.53;11.07;;;12.00;44.20;;;;;;4968615;28;20181;-88
2021/04/28 06:12:45;;;;;;;24.07;9.70;;;12.00;44.40;;;;;;4980570;28;20186;-86
2021/04/28 06:15:12;;;;;;;12.40;9.73;;;11.90;43.70;;;;;;4977461;28;20437;-87
2021/04/28 06:17:38;;;;;;;29.70;12.40;;;12.40;43.40;;;;;;4976163;28;20414;-87
2021/04/28 06:20:10;;;;;;;10.63;9.67;;;12.70;42.80;;;;;;4959725;28;20983;-84
2021/04/28 06:22:35;;;;;;;10.90;9.90;;;12.90;42.20;;;;;;4973080;28;20767;-87
2021/04/28 06:25:02;;;;;;;11.40;10.20;;;13.40;42.00;;;;;;4954768;28;20429;-86
2021/04/28 06:27:27;;;;;;;11.47;10.37;;;13.90;41.30;;;;;;4973062;28;20170;-86
2021/04/28 06:29:58;;;;;;;12.30;10.20;;;14.10;40.70;;;;;;4974782;28;20484;-87
2021/04/28 06:32:23;;;;;;;16.33;11.30;;;14.90;40.00;;;;;;4976754;28;20185;-83
2021/04/28 06:34:49;;;;;;;14.13;10.40;;;15.30;38.20;;;;;;4973019;28;20465;-86
2021/04/28 06:37:15;;;;;;;11.90;10.70;;;15.70;37.10;;;;;;4956468;28;20189;-87
2021/04/28 06:39:40;;;;;;;12.67;11.67;;;16.00;35.40;;;;;;4957134;28;20225;-87
2021/04/28 06:42:06;;;;;;;11.70;10.57;;;16.10;34.90;;;;;;4974916;28;20170;-87
2021/04/28 06:44:32;;;;;;;11.63;10.53;;;16.20;33.00;;;;;;4974588;28;20644;-85
2021/04/28 06:46:58;;;;;;;12.60;11.37;;;16.20;32.70;;;;;;4959057;28;20474;-86
2021/04/28 06:49:23;;;;;;;13.73;12.60;;;16.70;32.10;;;;;;4978060;28;20269;-87
2021/04/28 06:51:49;;;;;;;13.37;12.10;;;16.90;31.40;;;;;;4976875;28;20284;-87
2021/04/28 06:54:14;;;;;;;12.00;11.00;;;17.10;31.30;;;;;;4976773;28;20188;-86
2021/04/28 06:56:42;;;;;;;16.37;13.33;;;17.60;30.50;;;;;;4978590;28;20174;-86
2021/04/28 06:59:09;;;;;;;13.60;12.27;;;18.10;29.90;;;;;;4965273;28;20170;-85
2021/04/28 07:01:35;;;;;;;12.23;11.23;;;18.50;29.30;;;;;;4977426;28;20816;-83
2021/04/28 07:04:01;;;;;;;12.40;11.20;;;19.00;28.80;;;;;;4974983;28;20414;-86
2021/04/28 07:06:27;;;;;;;12.87;11.40;;;19.20;28.50;;;;;;4978934;28;20177;-86
2021/04/28 07:08:52;;;;;;;14.73;11.67;;;19.40;28.40;;;;;;4979939;28;20572;-87
2021/04/28 07:11:18;;;;;;;11.87;11.03;;;19.70;28.80;;;;;;4977872;28;20209;-86
2021/04/28 07:13:43;;;;;;;14.60;13.37;;;18.70;28.80;;;;;;4987310;28;20170;-87
2021/04/28 07:16:09;;;;;;;11.70;10.73;;;18.50;29.40;;;;;;4974819;28;20189;-89
2021/04/28 07:18:35;;;;;;;11.50;10.40;;;17.50;29.60;;;;;;4975040;28;20170;-90
2021/04/28 07:21:02;;;;;;;12.10;11.10;;;18.00;30.40;;;;;;4992392;28;20417;-85
2021/04/28 07:23:28;;;;;;;12.20;11.20;;;17.00;30.20;;;;;;4971770;28;20178;-86
2021/04/28 07:25:54;;;;;;;12.17;10.93;;;16.80;29.90;;;;;;4989882;28;20426;-88
2021/04/28 07:28:19;;;;;;;12.47;11.20;;;17.20;29.50;;;;;;4987638;28;20170;-86
2021/04/28 07:30:45;;;;;;;12.67;11.53;;;18.30;29.90;;;;;;4990223;28;20229;-87
2021/04/28 07:33:10;;;;;;;13.40;12.07;;;17.70;29.00;;;;;;4990887;28;20178;-87
2021/04/28 07:35:36;;;;;;;11.47;10.57;;;18.20;28.80;;;;;;4990450;28;20185;-88
2021/04/28 07:38:04;;;;;;;12.17;10.97;;;18.40;28.50;;;;;;4997126;28;20230;-91
2021/04/28 07:40:50;;;;;;;16.17;14.17;;;18.40;28.40;;;;;;4999664;28;20177;-90
2021/04/28 07:43:16;;;;;;;12.70;11.50;;;18.70;28.40;;;;;;4981027;28;20434;-86
2021/04/28 07:45:42;;;;;;;12.00;11.10;;;19.30;28.50;;;;;;4998117;28;20413;-89
2021/04/28 07:48:09;;;;;;;12.53;11.47;;;19.60;28.50;;;;;;4998515;28;20495;-88
2021/04/28 07:50:39;;;;;;;11.97;10.97;;;19.90;28.40;;;;;;4997690;28;20194;-89
2021/04/28 07:53:05;;;;;;;12.77;11.67;;;20.60;28.00;;;;;;4980499;28;20445;-89
2021/04/28 07:55:34;;;;;;;11.93;11.00;;;20.70;27.20;;;;;;4977097;28;20433;-89
2021/04/28 07:58:00;;;;;;;11.80;10.90;;;21.20;26.80;;;;;;4973236;28;20409;-89
2021/04/28 08:00:28;;;;;;;12.53;11.50;;;21.20;26.70;;;;;;4964647;28;20579;-90
2021/04/28 08:02:55;;;;;;;12.97;11.77;;;21.20;26.50;;;;;;4966473;28;20186;-89
2021/04/28 08:05:23;;;;;;;12.33;11.23;;;20.20;26.20;;;;;;4970031;28;20405;-89
2021/04/28 08:07:49;;;;;;;13.73;12.37;;;21.30;26.10;;;;;;4968590;28;20956;-88
2021/04/28 08:10:16;;;;;;;19.80;18.00;;;21.20;26.60;;;;;;4979902;28;20469;-88
2021/04/28 08:12:41;;;;;;;13.20;12.20;;;21.20;25.70;;;;;;4963199;28;20414;-87
2021/04/28 08:15:08;;;;;;;16.10;13.03;;;21.90;26.20;;;;;;4962434;28;20421;-90
2021/04/28 08:17:35;;;;;;;13.53;12.33;;;22.40;25.70;;;;;;4960956;28;20232;-89
2021/04/28 08:20:01;;;;;;;15.00;13.90;;;22.30;26.10;;;;;;4963990;28;20421;-89
2021/04/28 08:22:33;;;;;;;13.23;12.10;;;21.90;26.00;;;;;;4984579;28;20425;-90
2021/04/28 08:24:59;;;;;;;12.87;11.87;;;22.30;25.90;;;;;;4953254;28;20426;-91
2021/04/28 08:27:25;;;;;;;17.33;15.97;;;22.00;26.60;;;;;;4967206;28;20471;-87
2021/04/28 08:29:51;;;;;;;12.10;11.30;;;21.20;26.00;;;;;;4965327;28;20201;-88
2021/04/28 08:32:17;;;;;;;13.73;12.73;;;22.60;26.50;;;;;;4968172;28;20198;-91
2021/04/28 08:34:43;;;;;;;16.17;13.13;;;24.20;26.70;;;;;;4980666;28;20817;-90
2021/04/28 08:37:10;;;;;;;15.73;14.10;;;23.60;25.80;;;;;;4983729;28;20440;-91
2021/04/28 08:39:40;;;;;;;13.90;12.80;;;24.30;25.80;;;;;;4954289;28;20422;-90
2021/04/28 08:42:29;;;;;;;14.83;11.80;;;24.90;25.60;;;;;;4970355;28;20741;-89
2021/04/28 08:44:59;;;;;;;12.90;11.93;;;24.90;25.40;;;;;;4978532;28;20457;-87
2021/04/28 08:47:25;;;;;;;12.80;11.90;;;25.50;25.60;;;;;;4958593;28;20436;-84
2021/04/28 08:49:50;;;;;;;12.30;11.40;;;25.20;24.90;;;;;;4975378;28;20413;-89
2021/04/28 08:52:16;;;;;;;13.23;12.13;;;25.80;25.20;;;;;;4977290;28;20276;-85
2021/04/28 08:54:42;;;;;;;16.40;12.63;;;26.10;25.00;;;;;;4634192;28;9999694;-90
2021/04/28 08:57:12;;;;;;;12.80;11.60;;;26.40;25.00;;;;;;4960931;28;20197;-90
2021/04/28 08:59:38;;;;;;;13.73;12.60;;;26.30;24.50;;;;;;4972123;28;20418;-91
2021/04/28 09:02:22;;;;;;;13.57;12.23;;;25.90;24.70;;;;;;4985046;28;20448;-91
2021/04/28 09:05:14;;;;;;;12.70;11.40;;;27.40;24.60;;;;;;4966912;29;20425;-90
2021/04/28 09:07:42;;;;;;;12.43;11.40;;;25.90;23.90;;;;;;4951816;29;20816;-78
2021/04/28 09:10:13;;;;;;;12.43;11.43;;;27.20;24.60;;;;;;4941845;29;20470;-86
2021/04/28 09:12:40;;;;;;;12.67;11.53;;;26.50;23.70;;;;;;4958223;29;20425;-85
2021/04/28 09:15:10;;;;;;;13.27;12.17;;;28.30;24.00;;;;;;4963276;28;20413;-86
2021/04/28 09:17:53;;;;;;;11.90;10.93;;;28.30;23.00;;;;;;4976555;28;20492;-86
2021/04/28 09:20:35;;;;;;;11.77;10.87;;;27.40;22.70;;;;;;4976941;28;20416;-85
2021/04/28 09:23:11;;;;;;;12.00;11.00;;;27.90;23.10;;;;;;4976136;28;20462;-86
2021/04/28 09:25:49;;;;;;;14.17;13.07;;;28.70;23.00;;;;;;4959060;28;20795;-86
2021/04/28 09:28:22;;;;;;;13.40;12.40;;;28.20;22.50;;;;;;4977203;28;20501;-88
2021/04/28 09:30:49;;;;;;;11.47;10.67;;;26.60;22.50;;;;;;4959012;28;20611;-88
2021/04/28 09:33:15;;;;;;;12.83;11.70;;;26.10;22.90;;;;;;4959085;28;20512;-86
2021/04/28 09:35:40;;;;;;;13.10;12.00;;;25.90;23.10;;;;;;4976244;28;20995;-87
2021/04/28 09:38:06;;;;;;;12.33;11.30;;;26.30;23.10;;;;;;4977049;28;20170;-87
2021/04/28 09:40:46;;;;;;;14.23;12.00;;;26.90;23.10;;;;;;4957798;28;20181;-88
2021/04/28 09:43:13;;;;;;;12.80;11.83;;;27.30;22.50;;;;;;4957858;28;20200;-86
2021/04/28 09:45:39;;;;;;;14.00;11.20;;;28.10;22.30;;;;;;4975711;28;20774;-90
2021/04/28 09:48:06;;;;;;;11.10;10.30;;;28.90;22.10;;;;;;4958511;28;20921;-88
2021/04/28 09:50:32;;;;;;;12.07;11.17;;;28.00;21.70;;;;;;4956637;28;20465;-86
2021/04/28 09:52:57;;;;;;;11.70;10.80;;;28.20;21.70;;;;;;4976353;28;20409;-87
2021/04/28 09:55:23;;;;;;;10.77;9.97;;;27.00;21.80;;;;;;4978424;28;20435;-88
2021/04/28 09:57:52;;;;;;;12.73;11.60;;;26.80;22.30;;;;;;4977012;28;20170;-88
2021/04/28 10:00:22;;;;;;;11.80;10.70;;;25.40;21.70;;;;;;4975686;28;20237;-88
2021/04/28 10:02:56;;;;;;;12.10;11.10;;;27.50;22.20;;;;;;4958805;28;20425;-89
2021/04/28 10:05:22;;;;;;;12.10;10.83;;;28.30;21.90;;;;;;4958155;28;20821;-86
2021/04/28 10:07:49;;;;;;;12.13;11.13;;;28.00;22.00;;;;;;4629311;28;10000448;-86
2021/04/28 10:10:17;;;;;;;11.40;10.47;;;29.40;22.20;;;;;;4955483;28;20233;-88
2021/04/28 10:12:43;;;;;;;10.87;10.03;;;30.50;21.70;;;;;;4972698;28;20430;-88
2021/04/28 10:15:09;;;;;;;11.27;10.37;;;30.50;21.00;;;;;;4972252;28;20629;-88
2021/04/28 10:17:35;;;;;;;10.70;10.00;;;30.70;21.20;;;;;;4972141;28;20646;-87
2021/04/28 10:20:06;;;;;;;10.30;9.60;;;30.20;21.00;;;;;;4973694;28;20418;-87
2021/04/28 10:22:32;;;;;;;11.73;10.87;;;30.40;21.00;;;;;;4956146;28;20432;-88
2021/04/28 10:25:03;;;;;;;10.63;9.93;;;30.30;20.90;;;;;;4972771;28;20517;-89
2021/04/28 10:27:29;;;;;;;9.77;9.10;;;30.70;21.30;;;;;;4958101;28;20947;-88
2021/04/28 10:29:55;;;;;;;9.93;9.20;;;30.40;21.00;;;;;;4954872;28;20437;-88
2021/04/28 10:32:23;;;;;;;10.83;10.10;;;30.30;20.90;;;;;;4955780;28;20417;-87
2021/04/28 10:35:10;;;;;;;11.70;10.73;;;29.50;20.90;;;;;;4974802;28;20226;-84
2021/04/28 10:37:38;;;;;;;10.57;9.77;;;30.80;21.00;;;;;;4974620;28;20414;-88
2021/04/28 10:40:13;;;;;;;10.93;9.83;;;30.50;20.50;;;;;;5227699;22;20492;-89
2021/04/28 10:42:51;;;;;;;10.00;9.40;;;29.90;21.40;;;;;;4975169;28;20425;-92
2021/04/28 10:45:37;;;;;;;9.37;8.77;;;29.30;21.10;;;;;;5098267;22;20614;-88
2021/04/28 10:50:48;;;;;;;9.90;9.10;;;29.30;20.80;;;;;;5062729;22;20988;-91
2021/04/28 10:53:22;;;;;;;11.37;10.27;;;29.00;21.80;;;;;;4965344;28;20551;-86
2021/04/28 10:56:11;;;;;;;11.70;10.80;;;29.20;20.80;;;;;;4975508;28;20437;-85
2021/04/28 10:58:40;;;;;;;11.70;10.73;;;29.40;20.70;;;;;;4976070;28;20448;-86
2021/04/28 11:01:06;;;;;;;9.57;8.97;;;30.40;20.80;;;;;;4958744;28;20421;-87
2021/04/28 11:03:40;;;;;;;10.43;9.63;;;31.10;20.80;;;;;;4957031;28;20431;-87
2021/04/28 11:06:22;;;;;;;9.23;8.57;;;31.70;20.50;;;;;;4958117;28;20173;-86
2021/04/28 11:08:54;;;;;;;9.50;8.90;;;31.90;20.50;;;;;;4957143;28;20425;-87
2021/04/28 11:11:42;;;;;;;9.43;8.73;;;32.40;20.30;;;;;;4959425;28;20536;-90
2021/04/28 11:14:18;;;;;;;9.20;8.43;;;32.80;20.10;;;;;;5224220;22;20481;-90
2021/04/28 11:16:53;;;;;;;9.40;8.47;;;33.00;21.00;;;;;;5081806;23;20485;-91
2021/04/28 11:19:53;;;;;;;6.90;6.60;;;32.70;20.00;;;;;;4975366;29;20452;-89
2021/04/28 11:22:22;;;;;;;8.47;7.83;;;33.90;20.00;;;;;;4972689;29;20489;-89
2021/04/28 11:25:16;;;;;;;6.00;5.80;;;33.60;20.20;;;;;;4962646;29;21006;-88
2021/04/28 11:27:43;;;;;;;5.93;5.73;;;32.20;19.00;;;;;;4959710;28;20426;-87
2021/04/28 11:30:21;;;;;;;6.10;5.70;;;32.40;18.90;;;;;;4958179;29;20458;-88
2021/04/28 11:33:07;;;;;;;6.67;6.37;;;32.80;19.10;;;;;;4960596;28;20456;-88
2021/04/28 11:35:35;;;;;;;6.63;6.33;;;32.10;18.60;;;;;;4959640;28;20417;-85
2021/04/28 11:38:05;;;;;;;8.03;7.30;;;32.30;18.90;;;;;;4960043;28;20422;-89
2021/04/28 11:40:30;;;;;;;36.47;26.63;;;32.10;19.60;;;;;;4959884;28;20418;-87
2021/04/28 11:42:56;;;;;;;15.53;9.40;;;32.70;20.60;;;;;;4974311;28;20509;-85
2021/04/28 11:45:30;;;;;;;11.17;10.17;;;31.50;20.20;;;;;;4966298;28;20181;-90
2021/04/28 11:47:55;;;;;;;10.40;9.53;;;31.40;19.80;;;;;;4962581;29;20179;-89
2021/04/28 11:50:21;;;;;;;78.70;61.20;;;32.10;20.00;;;;;;4962402;29;20930;-89
2021/04/28 11:52:46;;;;;;;15.87;14.33;;;32.50;20.10;;;;;;4962329;29;20178;-88
2021/04/28 11:55:12;;;;;;;6.53;6.03;;;31.90;18.80;;;;;;4964375;29;20177;-89
2021/04/28 11:57:38;;;;;;;8.63;8.07;;;31.80;18.90;;;;;;4958938;29;20190;-90
2021/04/28 12:00:11;;;;;;;8.10;7.53;;;31.20;19.30;;;;;;4960169;28;20225;-90
2021/04/28 12:02:37;;;;;;;6.17;5.67;;;32.50;18.40;;;;;;4960644;29;20193;-85
2021/04/28 12:05:07;;;;;;;6.30;6.00;;;33.60;19.20;;;;;;4958225;28;20730;-88
2021/04/28 12:07:33;;;;;;;10.97;10.07;;;32.80;18.60;;;;;;4957891;29;20512;-88
2021/04/28 12:09:59;;;;;;;5.13;4.93;;;31.60;17.90;;;;;;4957516;29;20422;-88
2021/04/28 12:12:32;;;;;;;5.00;4.87;;;32.20;18.20;;;;;;4959746;29;20418;-88
2021/04/28 12:15:04;;;;;;;6.07;5.77;;;32.50;18.40;;;;;;4958048;29;20511;-86
2021/04/28 12:17:30;;;;;;;5.70;5.40;;;32.20;18.10;;;;;;4968429;28;20531;-87
2021/04/28 12:19:56;;;;;;;7.70;7.27;;;31.60;18.20;;;;;;4961058;28;20429;-88
2021/04/28 12:22:27;;;;;;;7.70;7.13;;;31.70;18.80;;;;;;4978120;28;20424;-88
2021/04/28 12:24:54;;;;;;;17.20;6.67;;;32.10;18.80;;;;;;4978606;28;20413;-88
2021/04/28 12:27:25;;;;;;;6.90;6.23;;;31.60;18.50;;;;;;4978413;28;21131;-87
2021/04/28 12:29:58;;;;;;;6.47;6.17;;;32.90;18.90;;;;;;4959936;28;20785;-89
2021/04/28 12:32:32;;;;;;;7.00;6.40;;;31.90;18.20;;;;;;4978444;28;20421;-88
2021/04/28 12:35:16;;;;;;;6.77;6.47;;;32.20;18.40;;;;;;4975473;28;20409;-88
2021/04/28 12:38:00;;;;;;;9.23;8.53;;;32.70;18.20;;;;;;4977180;28;20517;-87
2021/04/28 12:40:40;;;;;;;8.13;7.53;;;32.90;18.00;;;;;;4978656;28;20420;-88
2021/04/28 12:43:11;;;;;;;7.63;6.40;;;33.10;18.20;;;;;;4961441;28;20429;-88
2021/04/28 12:45:38;;;;;;;8.77;8.30;;;33.30;18.10;;;;;;4948602;29;20430;-90
2021/04/28 12:48:16;;;;;;;7.50;7.07;;;33.80;18.10;;;;;;4970487;28;20457;-90
2021/04/28 12:50:51;;;;;;;7.00;6.60;;;34.30;18.10;;;;;;4988036;28;20461;-90
2021/04/28 12:53:20;;;;;;;7.77;7.27;;;33.40;21.00;;;;;;4983435;28;20429;-88
2021/04/28 12:55:59;;;;;;;7.80;7.20;;;32.50;18.30;;;;;;4979520;28;20885;-88